sensor_id;sensor_type;location;lat;lon;timestamp;P1;durP1;ratioP1;P2;durP2;ratioP2
28003;SDS011;15330;51.234;6.754;2022-12-29T00:01:39;1.85;;;1.08;;
28003;SDS011;15330;51.234;6.754;2022-12-29T00:04:04;0.82;;;0.80;;
28003;SDS011;15330;51.234;6.754;2022-12-29T00:06:30;1.23;;;0.88;;
28003;SDS011;15330;51.234;6.754;2022-12-29T00:08:56;0.80;;;0.75;;
28003;SDS011;15330;51.234;6.754;2022-12-29T00:11:23;2.25;;;0.70;;
28003;SDS011;15330;51.234;6.754;2022-12-29T00:13:49;0.70;;;0.70;;
28003;SDS011;15330;51.234;6.754;2022-12-29T00:16:34;0.80;;;0.80;;
28003;SDS011;15330;51.234;6.754;2022-12-29T00:19:01;1.30;;;0.88;;
28003;SDS011;15330;51.234;6.754;2022-12-29T00:21:26;2.28;;;1.10;;
28003;SDS011;15330;51.234;6.754;2022-12-29T00:24:18;1.05;;;0.90;;
28003;SDS011;15330;51.234;6.754;2022-12-29T00:29:47;1.15;;;1.02;;
28003;SDS011;15330;51.234;6.754;2022-12-29T00:32:31;1.25;;;1.00;;
28003;SDS011;15330;51.234;6.754;2022-12-29T00:35:21;1.42;;;0.70;;
28003;SDS011;15330;51.234;6.754;2022-12-29T00:37:52;1.20;;;0.90;;
28003;SDS011;15330;51.234;6.754;2022-12-29T00:40:38;2.67;;;0.60;;
28003;SDS011;15330;51.234;6.754;2022-12-29T00:43:22;2.20;;;0.73;;
28003;SDS011;15330;51.234;6.754;2022-12-29T00:46:06;1.45;;;0.70;;
28003;SDS011;15330;51.234;6.754;2022-12-29T00:48:31;2.15;;;0.65;;
28003;SDS011;15330;51.234;6.754;2022-12-29T00:51:15;0.88;;;0.88;;
28003;SDS011;15330;51.234;6.754;2022-12-29T00:53:41;0.60;;;0.60;;
28003;SDS011;15330;51.234;6.754;2022-12-29T00:56:06;0.50;;;0.50;;
28003;SDS011;15330;51.234;6.754;2022-12-29T00:58:32;2.30;;;0.68;;
28003;SDS011;15330;51.234;6.754;2022-12-29T01:01:07;0.75;;;0.47;;
28003;SDS011;15330;51.234;6.754;2022-12-29T01:03:34;0.50;;;0.50;;
28003;SDS011;15330;51.234;6.754;2022-12-29T01:06:06;1.75;;;0.50;;
28003;SDS011;15330;51.234;6.754;2022-12-29T01:08:33;2.58;;;0.70;;
28003;SDS011;15330;51.234;6.754;2022-12-29T01:13:32;0.40;;;0.40;;
28003;SDS011;15330;51.234;6.754;2022-12-29T01:15:58;0.95;;;0.40;;
28003;SDS011;15330;51.234;6.754;2022-12-29T01:18:24;1.40;;;0.50;;
28003;SDS011;15330;51.234;6.754;2022-12-29T01:20:50;1.50;;;0.52;;
28003;SDS011;15330;51.234;6.754;2022-12-29T01:23:16;0.70;;;0.38;;
28003;SDS011;15330;51.234;6.754;2022-12-29T01:25:41;0.30;;;0.20;;
28003;SDS011;15330;51.234;6.754;2022-12-29T01:28:07;0.98;;;0.40;;
28003;SDS011;15330;51.234;6.754;2022-12-29T01:30:33;1.00;;;0.45;;
28003;SDS011;15330;51.234;6.754;2022-12-29T01:32:59;0.93;;;0.30;;
28003;SDS011;15330;51.234;6.754;2022-12-29T01:35:24;0.20;;;0.20;;
28003;SDS011;15330;51.234;6.754;2022-12-29T01:37:50;1.05;;;0.30;;
28003;SDS011;15330;51.234;6.754;2022-12-29T01:40:15;1.05;;;0.40;;
28003;SDS011;15330;51.234;6.754;2022-12-29T01:42:41;0.60;;;0.30;;
28003;SDS011;15330;51.234;6.754;2022-12-29T01:45:10;1.90;;;0.30;;
28003;SDS011;15330;51.234;6.754;2022-12-29T01:47:41;1.33;;;0.43;;
28003;SDS011;15330;51.234;6.754;2022-12-29T01:52:52;0.85;;;0.60;;
28003;SDS011;15330;51.234;6.754;2022-12-29T01:55:23;0.30;;;0.30;;
28003;SDS011;15330;51.234;6.754;2022-12-29T01:57:50;0.50;;;0.22;;
28003;SDS011;15330;51.234;6.754;2022-12-29T02:00:18;0.95;;;0.40;;
28003;SDS011;15330;51.234;6.754;2022-12-29T02:02:46;1.75;;;0.60;;
28003;SDS011;15330;51.234;6.754;2022-12-29T02:05:21;0.30;;;0.30;;
28003;SDS011;15330;51.234;6.754;2022-12-29T02:07:51;2.13;;;0.57;;
28003;SDS011;15330;51.234;6.754;2022-12-29T02:10:19;0.95;;;0.60;;
28003;SDS011;15330;51.234;6.754;2022-12-29T02:12:49;0.68;;;0.68;;
28003;SDS011;15330;51.234;6.754;2022-12-29T02:15:14;0.68;;;0.40;;
28003;SDS011;15330;51.234;6.754;2022-12-29T02:17:45;2.10;;;0.70;;
28003;SDS011;15330;51.234;6.754;2022-12-29T02:20:45;3.53;;;0.90;;
28003;SDS011;15330;51.234;6.754;2022-12-29T02:37:22;1.15;;;0.85;;
28003;SDS011;15330;51.234;6.754;2022-12-29T02:40:33;1.08;;;0.70;;
28003;SDS011;15330;51.234;6.754;2022-12-29T02:43:01;1.55;;;0.55;;
28003;SDS011;15330;51.234;6.754;2022-12-29T02:46:11;1.52;;;0.82;;
28003;SDS011;15330;51.234;6.754;2022-12-29T02:48:40;1.45;;;0.82;;
28003;SDS011;15330;51.234;6.754;2022-12-29T02:51:26;3.13;;;1.55;;
28003;SDS011;15330;51.234;6.754;2022-12-29T02:53:57;2.58;;;1.13;;
28003;SDS011;15330;51.234;6.754;2022-12-29T02:56:42;1.92;;;0.88;;
28003;SDS011;15330;51.234;6.754;2022-12-29T02:59:07;2.35;;;1.02;;
28003;SDS011;15330;51.234;6.754;2022-12-29T03:07:29;1.58;;;0.73;;
28003;SDS011;15330;51.234;6.754;2022-12-29T03:10:15;1.42;;;0.77;;
28003;SDS011;15330;51.234;6.754;2022-12-29T03:13:01;0.88;;;0.70;;
28003;SDS011;15330;51.234;6.754;2022-12-29T03:16:00;1.40;;;0.60;;
28003;SDS011;15330;51.234;6.754;2022-12-29T03:18:45;2.35;;;0.60;;
28003;SDS011;15330;51.234;6.754;2022-12-29T03:24:15;1.00;;;0.70;;
28003;SDS011;15330;51.234;6.754;2022-12-29T03:26:42;0.80;;;0.55;;
28003;SDS011;15330;51.234;6.754;2022-12-29T03:29:11;1.77;;;0.60;;
28003;SDS011;15330;51.234;6.754;2022-12-29T03:31:39;0.70;;;0.63;;
28003;SDS011;15330;51.234;6.754;2022-12-29T03:34:06;1.33;;;0.70;;
28003;SDS011;15330;51.234;6.754;2022-12-29T03:36:44;0.73;;;0.70;;
28003;SDS011;15330;51.234;6.754;2022-12-29T03:39:14;1.02;;;0.80;;
28003;SDS011;15330;51.234;6.754;2022-12-29T03:41:40;1.27;;;0.70;;
28003;SDS011;15330;51.234;6.754;2022-12-29T03:44:09;1.05;;;0.65;;
28003;SDS011;15330;51.234;6.754;2022-12-29T03:46:35;0.70;;;0.30;;
28003;SDS011;15330;51.234;6.754;2022-12-29T03:49:01;1.48;;;0.55;;
28003;SDS011;15330;51.234;6.754;2022-12-29T03:51:26;1.45;;;0.50;;
28003;SDS011;15330;51.234;6.754;2022-12-29T03:53:51;1.40;;;0.70;;
28003;SDS011;15330;51.234;6.754;2022-12-29T03:56:17;2.85;;;0.60;;
28003;SDS011;15330;51.234;6.754;2022-12-29T03:58:42;2.30;;;0.70;;
28003;SDS011;15330;51.234;6.754;2022-12-29T04:01:07;0.85;;;0.50;;
28003;SDS011;15330;51.234;6.754;2022-12-29T04:03:33;0.22;;;0.22;;
28003;SDS011;15330;51.234;6.754;2022-12-29T04:05:58;2.60;;;0.50;;
28003;SDS011;15330;51.234;6.754;2022-12-29T04:08:24;2.10;;;0.47;;
28003;SDS011;15330;51.234;6.754;2022-12-29T04:10:49;0.70;;;0.50;;
28003;SDS011;15330;51.234;6.754;2022-12-29T04:13:15;1.08;;;0.60;;
28003;SDS011;15330;51.234;6.754;2022-12-29T04:15:41;0.65;;;0.65;;
28003;SDS011;15330;51.234;6.754;2022-12-29T04:18:08;1.80;;;0.63;;
28003;SDS011;15330;51.234;6.754;2022-12-29T04:20:33;0.70;;;0.35;;
28003;SDS011;15330;51.234;6.754;2022-12-29T04:23:17;0.50;;;0.50;;
28003;SDS011;15330;51.234;6.754;2022-12-29T04:25:44;2.80;;;0.77;;
28003;SDS011;15330;51.234;6.754;2022-12-29T04:28:11;0.82;;;0.60;;
28003;SDS011;15330;51.234;6.754;2022-12-29T04:30:37;0.68;;;0.63;;
28003;SDS011;15330;51.234;6.754;2022-12-29T04:33:02;1.83;;;0.60;;
28003;SDS011;15330;51.234;6.754;2022-12-29T04:35:27;0.63;;;0.52;;
28003;SDS011;15330;51.234;6.754;2022-12-29T04:37:53;2.05;;;0.70;;
28003;SDS011;15330;51.234;6.754;2022-12-29T04:40:18;2.40;;;0.80;;
28003;SDS011;15330;51.234;6.754;2022-12-29T04:42:43;0.57;;;0.57;;
28003;SDS011;15330;51.234;6.754;2022-12-29T04:45:09;1.58;;;0.55;;
28003;SDS011;15330;51.234;6.754;2022-12-29T04:47:35;1.60;;;0.57;;
28003;SDS011;15330;51.234;6.754;2022-12-29T04:50:00;1.48;;;0.50;;
28003;SDS011;15330;51.234;6.754;2022-12-29T04:52:25;1.25;;;0.63;;
28003;SDS011;15330;51.234;6.754;2022-12-29T04:54:51;2.50;;;0.80;;
28003;SDS011;15330;51.234;6.754;2022-12-29T04:57:16;0.75;;;0.60;;
28003;SDS011;15330;51.234;6.754;2022-12-29T04:59:41;1.75;;;0.68;;
28003;SDS011;15330;51.234;6.754;2022-12-29T05:02:07;1.80;;;0.60;;
28003;SDS011;15330;51.234;6.754;2022-12-29T05:04:32;4.03;;;0.80;;
28003;SDS011;15330;51.234;6.754;2022-12-29T05:06:57;4.70;;;0.80;;
28003;SDS011;15330;51.234;6.754;2022-12-29T05:09:23;1.65;;;0.80;;
28003;SDS011;15330;51.234;6.754;2022-12-29T05:11:49;4.47;;;1.10;;
28003;SDS011;15330;51.234;6.754;2022-12-29T05:14:14;1.60;;;0.77;;
28003;SDS011;15330;51.234;6.754;2022-12-29T05:16:39;4.90;;;1.00;;
28003;SDS011;15330;51.234;6.754;2022-12-29T05:19:05;1.48;;;0.95;;
28003;SDS011;15330;51.234;6.754;2022-12-29T05:21:30;1.85;;;0.93;;
28003;SDS011;15330;51.234;6.754;2022-12-29T05:23:56;1.23;;;0.80;;
28003;SDS011;15330;51.234;6.754;2022-12-29T05:26:21;2.40;;;0.80;;
28003;SDS011;15330;51.234;6.754;2022-12-29T05:28:46;10.98;;;1.00;;
28003;SDS011;15330;51.234;6.754;2022-12-29T05:31:12;2.95;;;0.85;;
28003;SDS011;15330;51.234;6.754;2022-12-29T05:33:37;1.95;;;0.85;;
28003;SDS011;15330;51.234;6.754;2022-12-29T05:36:06;3.45;;;0.90;;
28003;SDS011;15330;51.234;6.754;2022-12-29T05:38:33;2.08;;;0.90;;
28003;SDS011;15330;51.234;6.754;2022-12-29T05:40:58;3.60;;;0.80;;
28003;SDS011;15330;51.234;6.754;2022-12-29T05:43:24;1.95;;;0.80;;
28003;SDS011;15330;51.234;6.754;2022-12-29T05:45:49;2.63;;;1.05;;
28003;SDS011;15330;51.234;6.754;2022-12-29T05:48:15;4.90;;;0.60;;
28003;SDS011;15330;51.234;6.754;2022-12-29T05:50:40;1.92;;;0.90;;
28003;SDS011;15330;51.234;6.754;2022-12-29T05:53:05;2.95;;;0.77;;
28003;SDS011;15330;51.234;6.754;2022-12-29T05:55:31;2.90;;;0.90;;
28003;SDS011;15330;51.234;6.754;2022-12-29T05:57:56;4.97;;;1.20;;
28003;SDS011;15330;51.234;6.754;2022-12-29T06:00:21;3.47;;;1.02;;
28003;SDS011;15330;51.234;6.754;2022-12-29T06:02:47;1.23;;;0.68;;
28003;SDS011;15330;51.234;6.754;2022-12-29T06:05:12;2.30;;;0.73;;
28003;SDS011;15330;51.234;6.754;2022-12-29T06:07:38;3.65;;;1.10;;
28003;SDS011;15330;51.234;6.754;2022-12-29T06:10:04;2.17;;;0.80;;
28003;SDS011;15330;51.234;6.754;2022-12-29T06:12:31;3.08;;;0.75;;
28003;SDS011;15330;51.234;6.754;2022-12-29T06:14:56;5.30;;;0.70;;
28003;SDS011;15330;51.234;6.754;2022-12-29T06:17:21;4.22;;;1.25;;
28003;SDS011;15330;51.234;6.754;2022-12-29T06:19:47;2.72;;;0.80;;
28003;SDS011;15330;51.234;6.754;2022-12-29T06:22:12;2.60;;;0.70;;
28003;SDS011;15330;51.234;6.754;2022-12-29T06:24:38;2.92;;;1.13;;
28003;SDS011;15330;51.234;6.754;2022-12-29T06:27:04;3.13;;;1.00;;
28003;SDS011;15330;51.234;6.754;2022-12-29T06:29:29;1.85;;;0.80;;
28003;SDS011;15330;51.234;6.754;2022-12-29T06:31:54;3.42;;;0.80;;
28003;SDS011;15330;51.234;6.754;2022-12-29T06:34:23;2.83;;;1.00;;
28003;SDS011;15330;51.234;6.754;2022-12-29T06:36:51;5.03;;;0.90;;
28003;SDS011;15330;51.234;6.754;2022-12-29T06:39:16;3.50;;;1.25;;
28003;SDS011;15330;51.234;6.754;2022-12-29T06:41:41;3.63;;;1.08;;
28003;SDS011;15330;51.234;6.754;2022-12-29T06:44:07;5.75;;;1.33;;
28003;SDS011;15330;51.234;6.754;2022-12-29T06:46:32;3.60;;;1.00;;
28003;SDS011;15330;51.234;6.754;2022-12-29T06:48:58;4.47;;;2.03;;
28003;SDS011;15330;51.234;6.754;2022-12-29T06:51:23;4.80;;;1.17;;
28003;SDS011;15330;51.234;6.754;2022-12-29T06:53:48;2.95;;;1.00;;
28003;SDS011;15330;51.234;6.754;2022-12-29T06:56:14;4.63;;;1.08;;
28003;SDS011;15330;51.234;6.754;2022-12-29T06:58:39;4.65;;;1.30;;
28003;SDS011;15330;51.234;6.754;2022-12-29T07:01:04;10.50;;;1.00;;
28003;SDS011;15330;51.234;6.754;2022-12-29T07:03:30;8.93;;;1.10;;
28003;SDS011;15330;51.234;6.754;2022-12-29T07:05:55;3.17;;;0.95;;
28003;SDS011;15330;51.234;6.754;2022-12-29T07:08:23;4.50;;;1.33;;
28003;SDS011;15330;51.234;6.754;2022-12-29T07:10:48;4.70;;;1.27;;
28003;SDS011;15330;51.234;6.754;2022-12-29T07:13:14;2.35;;;1.13;;
28003;SDS011;15330;51.234;6.754;2022-12-29T07:15:39;6.28;;;1.10;;
28003;SDS011;15330;51.234;6.754;2022-12-29T07:18:04;4.25;;;1.40;;
28003;SDS011;15330;51.234;6.754;2022-12-29T07:20:30;5.38;;;1.80;;
28003;SDS011;15330;51.234;6.754;2022-12-29T07:22:56;3.05;;;1.20;;
28003;SDS011;15330;51.234;6.754;2022-12-29T07:25:21;3.22;;;1.13;;
28003;SDS011;15330;51.234;6.754;2022-12-29T07:27:47;6.25;;;0.90;;
28003;SDS011;15330;51.234;6.754;2022-12-29T07:30:13;3.47;;;0.70;;
28003;SDS011;15330;51.234;6.754;2022-12-29T07:32:39;4.72;;;1.67;;
28003;SDS011;15330;51.234;6.754;2022-12-29T07:35:04;5.93;;;1.20;;
28003;SDS011;15330;51.234;6.754;2022-12-29T07:37:31;6.43;;;1.30;;
28003;SDS011;15330;51.234;6.754;2022-12-29T07:39:56;7.30;;;1.80;;
28003;SDS011;15330;51.234;6.754;2022-12-29T07:42:21;2.10;;;0.93;;
28003;SDS011;15330;51.234;6.754;2022-12-29T07:44:47;3.63;;;1.15;;
28003;SDS011;15330;51.234;6.754;2022-12-29T07:47:12;8.40;;;1.40;;
28003;SDS011;15330;51.234;6.754;2022-12-29T07:49:37;5.57;;;1.25;;
28003;SDS011;15330;51.234;6.754;2022-12-29T07:52:03;4.80;;;1.20;;
28003;SDS011;15330;51.234;6.754;2022-12-29T07:54:28;7.65;;;1.30;;
28003;SDS011;15330;51.234;6.754;2022-12-29T07:56:54;9.48;;;1.40;;
28003;SDS011;15330;51.234;6.754;2022-12-29T07:59:19;4.47;;;1.10;;
28003;SDS011;15330;51.234;6.754;2022-12-29T08:01:45;2.60;;;0.82;;
28003;SDS011;15330;51.234;6.754;2022-12-29T08:04:10;3.88;;;1.00;;
28003;SDS011;15330;51.234;6.754;2022-12-29T08:06:35;8.23;;;1.63;;
28003;SDS011;15330;51.234;6.754;2022-12-29T08:09:02;7.13;;;1.45;;
28003;SDS011;15330;51.234;6.754;2022-12-29T08:11:28;6.35;;;1.13;;
28003;SDS011;15330;51.234;6.754;2022-12-29T08:13:53;5.20;;;1.20;;
28003;SDS011;15330;51.234;6.754;2022-12-29T08:16:19;3.60;;;1.38;;
28003;SDS011;15330;51.234;6.754;2022-12-29T08:18:44;6.00;;;1.83;;
28003;SDS011;15330;51.234;6.754;2022-12-29T08:21:10;9.52;;;2.33;;
28003;SDS011;15330;51.234;6.754;2022-12-29T08:23:35;9.85;;;1.75;;
28003;SDS011;15330;51.234;6.754;2022-12-29T08:26:02;9.68;;;1.67;;
28003;SDS011;15330;51.234;6.754;2022-12-29T08:28:29;7.53;;;1.48;;
28003;SDS011;15330;51.234;6.754;2022-12-29T08:30:58;6.93;;;1.63;;
28003;SDS011;15330;51.234;6.754;2022-12-29T08:33:24;5.00;;;1.40;;
28003;SDS011;15330;51.234;6.754;2022-12-29T08:35:50;9.50;;;1.60;;
28003;SDS011;15330;51.234;6.754;2022-12-29T08:38:15;8.45;;;1.75;;
28003;SDS011;15330;51.234;6.754;2022-12-29T08:40:41;7.38;;;1.52;;
28003;SDS011;15330;51.234;6.754;2022-12-29T08:43:06;7.88;;;1.75;;
28003;SDS011;15330;51.234;6.754;2022-12-29T08:45:32;8.80;;;1.98;;
28003;SDS011;15330;51.234;6.754;2022-12-29T08:47:57;12.10;;;1.63;;
28003;SDS011;15330;51.234;6.754;2022-12-29T08:50:22;4.80;;;0.98;;
28003;SDS011;15330;51.234;6.754;2022-12-29T08:52:48;8.27;;;1.38;;
28003;SDS011;15330;51.234;6.754;2022-12-29T08:55:13;6.40;;;1.33;;
28003;SDS011;15330;51.234;6.754;2022-12-29T08:57:39;5.28;;;1.58;;
28003;SDS011;15330;51.234;6.754;2022-12-29T09:00:04;7.68;;;1.67;;
28003;SDS011;15330;51.234;6.754;2022-12-29T09:02:30;7.22;;;1.27;;
28003;SDS011;15330;51.234;6.754;2022-12-29T09:04:56;6.78;;;1.20;;
28003;SDS011;15330;51.234;6.754;2022-12-29T09:07:22;5.05;;;1.30;;
28003;SDS011;15330;51.234;6.754;2022-12-29T09:09:48;2.92;;;1.27;;
28003;SDS011;15330;51.234;6.754;2022-12-29T09:12:14;7.55;;;1.77;;
28003;SDS011;15330;51.234;6.754;2022-12-29T09:14:41;7.70;;;1.33;;
28003;SDS011;15330;51.234;6.754;2022-12-29T09:17:07;16.85;;;2.38;;
28003;SDS011;15330;51.234;6.754;2022-12-29T09:19:52;7.63;;;1.40;;
28003;SDS011;15330;51.234;6.754;2022-12-29T09:22:17;9.65;;;2.15;;
28003;SDS011;15330;51.234;6.754;2022-12-29T09:24:42;11.68;;;1.75;;
28003;SDS011;15330;51.234;6.754;2022-12-29T09:27:08;10.65;;;1.83;;
28003;SDS011;15330;51.234;6.754;2022-12-29T09:29:33;7.30;;;1.55;;
28003;SDS011;15330;51.234;6.754;2022-12-29T09:31:58;3.97;;;1.10;;
28003;SDS011;15330;51.234;6.754;2022-12-29T09:34:24;5.80;;;1.45;;
28003;SDS011;15330;51.234;6.754;2022-12-29T09:36:49;6.97;;;1.40;;
28003;SDS011;15330;51.234;6.754;2022-12-29T09:39:15;8.15;;;1.80;;
28003;SDS011;15330;51.234;6.754;2022-12-29T09:41:47;6.97;;;1.98;;
28003;SDS011;15330;51.234;6.754;2022-12-29T09:44:23;6.03;;;1.25;;
28003;SDS011;15330;51.234;6.754;2022-12-29T09:46:56;12.52;;;3.55;;
28003;SDS011;15330;51.234;6.754;2022-12-29T09:49:28;5.03;;;1.90;;
28003;SDS011;15330;51.234;6.754;2022-12-29T09:52:11;9.77;;;1.55;;
28003;SDS011;15330;51.234;6.754;2022-12-29T09:54:53;11.40;;;6.20;;
28003;SDS011;15330;51.234;6.754;2022-12-29T09:57:29;9.80;;;6.68;;
28003;SDS011;15330;51.234;6.754;2022-12-29T10:00:03;7.53;;;1.85;;
28003;SDS011;15330;51.234;6.754;2022-12-29T10:02:37;7.35;;;2.30;;
28003;SDS011;15330;51.234;6.754;2022-12-29T10:05:13;7.90;;;1.40;;
28003;SDS011;15330;51.234;6.754;2022-12-29T10:07:49;13.27;;;9.45;;
28003;SDS011;15330;51.234;6.754;2022-12-29T10:21:32;10.38;;;1.80;;
28003;SDS011;15330;51.234;6.754;2022-12-29T10:24:02;14.68;;;2.78;;
28003;SDS011;15330;51.234;6.754;2022-12-29T10:26:33;7.65;;;1.20;;
28003;SDS011;15330;51.234;6.754;2022-12-29T10:29:05;8.93;;;2.20;;
28003;SDS011;15330;51.234;6.754;2022-12-29T10:31:38;7.13;;;1.83;;
28003;SDS011;15330;51.234;6.754;2022-12-29T10:34:16;11.00;;;4.05;;
28003;SDS011;15330;51.234;6.754;2022-12-29T10:37:00;9.25;;;1.60;;
28003;SDS011;15330;51.234;6.754;2022-12-29T10:39:49;10.77;;;2.38;;
28003;SDS011;15330;51.234;6.754;2022-12-29T10:44:53;12.13;;;2.60;;
28003;SDS011;15330;51.234;6.754;2022-12-29T10:47:22;14.02;;;1.75;;
28003;SDS011;15330;51.234;6.754;2022-12-29T10:49:51;14.82;;;2.17;;
28003;SDS011;15330;51.234;6.754;2022-12-29T10:52:17;7.18;;;1.98;;
28003;SDS011;15330;51.234;6.754;2022-12-29T10:54:48;9.05;;;1.73;;
28003;SDS011;15330;51.234;6.754;2022-12-29T10:59:53;9.70;;;2.35;;
28003;SDS011;15330;51.234;6.754;2022-12-29T11:08:00;6.07;;;1.75;;
28003;SDS011;15330;51.234;6.754;2022-12-29T11:13:17;11.77;;;1.80;;
28003;SDS011;15330;51.234;6.754;2022-12-29T11:15:50;9.27;;;2.17;;
28003;SDS011;15330;51.234;6.754;2022-12-29T11:20:57;11.00;;;2.05;;
28003;SDS011;15330;51.234;6.754;2022-12-29T11:28:41;4.85;;;1.25;;
28003;SDS011;15330;51.234;6.754;2022-12-29T11:31:08;8.45;;;1.70;;
28003;SDS011;15330;51.234;6.754;2022-12-29T11:33:35;7.18;;;1.83;;
28003;SDS011;15330;51.234;6.754;2022-12-29T11:36:05;16.20;;;1.63;;
28003;SDS011;15330;51.234;6.754;2022-12-29T11:38:36;11.27;;;1.50;;
28003;SDS011;15330;51.234;6.754;2022-12-29T11:41:04;9.55;;;1.75;;
28003;SDS011;15330;51.234;6.754;2022-12-29T11:43:38;8.65;;;1.77;;
28003;SDS011;15330;51.234;6.754;2022-12-29T11:46:22;10.93;;;2.25;;
28003;SDS011;15330;51.234;6.754;2022-12-29T11:48:51;5.85;;;1.65;;
28003;SDS011;15330;51.234;6.754;2022-12-29T11:51:23;10.68;;;1.67;;
28003;SDS011;15330;51.234;6.754;2022-12-29T11:53:58;7.90;;;1.90;;
28003;SDS011;15330;51.234;6.754;2022-12-29T11:56:33;7.05;;;1.60;;
28003;SDS011;15330;51.234;6.754;2022-12-29T12:04:37;8.70;;;1.73;;
28003;SDS011;15330;51.234;6.754;2022-12-29T12:07:08;9.02;;;2.60;;
28003;SDS011;15330;51.234;6.754;2022-12-29T12:09:49;13.63;;;2.83;;
28003;SDS011;15330;51.234;6.754;2022-12-29T12:12:24;9.88;;;1.90;;
28003;SDS011;15330;51.234;6.754;2022-12-29T12:14:56;7.75;;;2.15;;
28003;SDS011;15330;51.234;6.754;2022-12-29T12:17:49;9.63;;;1.90;;
28003;SDS011;15330;51.234;6.754;2022-12-29T12:20:54;8.18;;;1.70;;
28003;SDS011;15330;51.234;6.754;2022-12-29T12:26:21;10.02;;;1.55;;
28003;SDS011;15330;51.234;6.754;2022-12-29T12:29:13;10.15;;;1.75;;
28003;SDS011;15330;51.234;6.754;2022-12-29T12:34:39;14.35;;;1.90;;
28003;SDS011;15330;51.234;6.754;2022-12-29T13:00:18;10.07;;;2.10;;
28003;SDS011;15330;51.234;6.754;2022-12-29T13:03:05;9.23;;;1.88;;
28003;SDS011;15330;51.234;6.754;2022-12-29T13:05:44;4.90;;;1.42;;
28003;SDS011;15330;51.234;6.754;2022-12-29T13:10:49;5.93;;;2.03;;
28003;SDS011;15330;51.234;6.754;2022-12-29T13:21:02;9.75;;;1.45;;
28003;SDS011;15330;51.234;6.754;2022-12-29T13:23:40;8.90;;;1.60;;
28003;SDS011;15330;51.234;6.754;2022-12-29T13:29:05;7.75;;;2.25;;
28003;SDS011;15330;51.234;6.754;2022-12-29T13:37:18;7.88;;;1.50;;
28003;SDS011;15330;51.234;6.754;2022-12-29T13:39:51;9.52;;;1.52;;
28003;SDS011;15330;51.234;6.754;2022-12-29T13:42:21;10.02;;;1.52;;
28003;SDS011;15330;51.234;6.754;2022-12-29T13:44:50;10.02;;;2.13;;
28003;SDS011;15330;51.234;6.754;2022-12-29T13:50:19;11.35;;;1.42;;
28003;SDS011;15330;51.234;6.754;2022-12-29T13:53:01;8.77;;;1.50;;
28003;SDS011;15330;51.234;6.754;2022-12-29T14:03:56;8.98;;;1.60;;
28003;SDS011;15330;51.234;6.754;2022-12-29T14:09:00;10.82;;;3.13;;
28003;SDS011;15330;51.234;6.754;2022-12-29T14:11:31;6.15;;;1.90;;
28003;SDS011;15330;51.234;6.754;2022-12-29T14:13:59;12.25;;;2.50;;
28003;SDS011;15330;51.234;6.754;2022-12-29T14:16:53;25.48;;;4.63;;
28003;SDS011;15330;51.234;6.754;2022-12-29T14:22:06;11.25;;;2.10;;
28003;SDS011;15330;51.234;6.754;2022-12-29T14:27:00;6.28;;;1.92;;
28003;SDS011;15330;51.234;6.754;2022-12-29T14:29:47;11.02;;;2.35;;
28003;SDS011;15330;51.234;6.754;2022-12-29T14:34:45;7.90;;;2.38;;
28003;SDS011;15330;51.234;6.754;2022-12-29T14:42:28;9.20;;;1.77;;
28003;SDS011;15330;51.234;6.754;2022-12-29T14:45:29;6.50;;;1.88;;
28003;SDS011;15330;51.234;6.754;2022-12-29T14:47:47;8.85;;;2.17;;
28003;SDS011;15330;51.234;6.754;2022-12-29T14:50:18;10.38;;;2.65;;
28003;SDS011;15330;51.234;6.754;2022-12-29T14:52:47;8.18;;;1.65;;
28003;SDS011;15330;51.234;6.754;2022-12-29T14:57:43;9.45;;;1.83;;
28003;SDS011;15330;51.234;6.754;2022-12-29T15:00:15;8.73;;;1.60;;
28003;SDS011;15330;51.234;6.754;2022-12-29T15:02:49;9.15;;;1.80;;
28003;SDS011;15330;51.234;6.754;2022-12-29T15:07:57;15.40;;;2.88;;
28003;SDS011;15330;51.234;6.754;2022-12-29T15:10:24;10.52;;;2.15;;
28003;SDS011;15330;51.234;6.754;2022-12-29T15:12:53;8.10;;;2.10;;
28003;SDS011;15330;51.234;6.754;2022-12-29T15:17:50;7.82;;;1.58;;
28003;SDS011;15330;51.234;6.754;2022-12-29T15:22:43;3.38;;;1.20;;
28003;SDS011;15330;51.234;6.754;2022-12-29T15:25:14;9.77;;;2.35;;
28003;SDS011;15330;51.234;6.754;2022-12-29T15:27:42;10.98;;;1.90;;
28003;SDS011;15330;51.234;6.754;2022-12-29T15:30:13;6.07;;;1.75;;
28003;SDS011;15330;51.234;6.754;2022-12-29T15:32:39;9.70;;;1.63;;
28003;SDS011;15330;51.234;6.754;2022-12-29T15:38:00;7.43;;;1.40;;
28003;SDS011;15330;51.234;6.754;2022-12-29T15:40:37;8.70;;;1.73;;
28003;SDS011;15330;51.234;6.754;2022-12-29T15:43:15;6.88;;;1.63;;
28003;SDS011;15330;51.234;6.754;2022-12-29T15:45:49;9.55;;;1.70;;
28003;SDS011;15330;51.234;6.754;2022-12-29T15:48:17;10.50;;;2.85;;
28003;SDS011;15330;51.234;6.754;2022-12-29T15:50:44;7.95;;;1.98;;
28003;SDS011;15330;51.234;6.754;2022-12-29T15:53:11;14.10;;;2.25;;
28003;SDS011;15330;51.234;6.754;2022-12-29T15:55:42;8.88;;;2.65;;
28003;SDS011;15330;51.234;6.754;2022-12-29T15:58:22;11.43;;;2.35;;
28003;SDS011;15330;51.234;6.754;2022-12-29T16:00:51;13.57;;;2.17;;
28003;SDS011;15330;51.234;6.754;2022-12-29T16:03:18;14.70;;;2.90;;
28003;SDS011;15330;51.234;6.754;2022-12-29T16:05:58;8.10;;;2.45;;
28003;SDS011;15330;51.234;6.754;2022-12-29T16:08:35;6.15;;;1.60;;
28003;SDS011;15330;51.234;6.754;2022-12-29T16:11:24;11.25;;;2.35;;
28003;SDS011;15330;51.234;6.754;2022-12-29T16:13:53;11.10;;;2.35;;
28003;SDS011;15330;51.234;6.754;2022-12-29T16:16:22;15.15;;;2.85;;
28003;SDS011;15330;51.234;6.754;2022-12-29T16:18:53;14.45;;;2.00;;
28003;SDS011;15330;51.234;6.754;2022-12-29T16:21:20;13.07;;;1.80;;
28003;SDS011;15330;51.234;6.754;2022-12-29T16:23:50;11.80;;;2.47;;
28003;SDS011;15330;51.234;6.754;2022-12-29T16:26:18;11.38;;;2.45;;
28003;SDS011;15330;51.234;6.754;2022-12-29T16:28:47;11.57;;;2.55;;
28003;SDS011;15330;51.234;6.754;2022-12-29T16:36:30;12.63;;;2.50;;
28003;SDS011;15330;51.234;6.754;2022-12-29T16:44:20;11.83;;;2.40;;
28003;SDS011;15330;51.234;6.754;2022-12-29T16:49:30;14.98;;;2.30;;
28003;SDS011;15330;51.234;6.754;2022-12-29T16:51:57;11.43;;;2.50;;
28003;SDS011;15330;51.234;6.754;2022-12-29T16:54:33;14.35;;;2.55;;
28003;SDS011;15330;51.234;6.754;2022-12-29T16:57:01;11.55;;;2.25;;
28003;SDS011;15330;51.234;6.754;2022-12-29T16:59:40;12.52;;;2.70;;
28003;SDS011;15330;51.234;6.754;2022-12-29T17:02:14;13.00;;;2.85;;
28003;SDS011;15330;51.234;6.754;2022-12-29T17:07:15;14.25;;;2.47;;
28003;SDS011;15330;51.234;6.754;2022-12-29T17:09:42;12.90;;;2.50;;
28003;SDS011;15330;51.234;6.754;2022-12-29T17:12:07;16.67;;;2.75;;
28003;SDS011;15330;51.234;6.754;2022-12-29T17:14:48;16.15;;;2.33;;
28003;SDS011;15330;51.234;6.754;2022-12-29T17:17:18;13.85;;;2.40;;
28003;SDS011;15330;51.234;6.754;2022-12-29T17:19:51;16.75;;;3.05;;
28003;SDS011;15330;51.234;6.754;2022-12-29T17:22:20;24.30;;;2.47;;
28003;SDS011;15330;51.234;6.754;2022-12-29T17:24:49;12.52;;;2.30;;
28003;SDS011;15330;51.234;6.754;2022-12-29T17:27:20;12.85;;;2.28;;
28003;SDS011;15330;51.234;6.754;2022-12-29T17:29:49;9.27;;;2.83;;
28003;SDS011;15330;51.234;6.754;2022-12-29T17:32:15;8.68;;;2.15;;
28003;SDS011;15330;51.234;6.754;2022-12-29T17:34:41;12.27;;;2.40;;
28003;SDS011;15330;51.234;6.754;2022-12-29T17:37:16;19.02;;;3.10;;
28003;SDS011;15330;51.234;6.754;2022-12-29T17:39:45;6.93;;;2.22;;
28003;SDS011;15330;51.234;6.754;2022-12-29T17:42:11;11.25;;;2.15;;
28003;SDS011;15330;51.234;6.754;2022-12-29T17:44:36;14.23;;;2.42;;
28003;SDS011;15330;51.234;6.754;2022-12-29T17:47:02;11.63;;;2.20;;
28003;SDS011;15330;51.234;6.754;2022-12-29T17:49:27;11.73;;;2.40;;
28003;SDS011;15330;51.234;6.754;2022-12-29T17:51:52;12.35;;;2.60;;
28003;SDS011;15330;51.234;6.754;2022-12-29T17:54:19;8.48;;;1.92;;